Terminal Aerodrome Forecast
Issued by NWS

Current Version | Previous Version | Graphics & Text | Print | Product List | Glossary On
Versions: 1 2 3 4 5 6 7 8 9 10 11 12 13 14 15 16 17 18 19 20 21 22 23 24 25
000
FTUS41 KPBZ 242100 AAA
TAFHLG
TAF AMD
KHLG 242119Z 2421/2518 23020G45KT P6SM BKN050
     FM242200 23018G30KT P6SM SCT025 BKN040
      TEMPO 2422/2502 BKN025
     FM250500 24010G20KT P6SM BKN035=

USA.gov is the U.S. government's official web portal to all federal, state and local government web resources and services.